createdAt,value
2023-03-23T16:01:54.324Z,11.90
2023-03-23T16:06:58.991Z,13.50
2023-03-23T16:12:01.082Z,11.40
2023-03-23T16:17:02.853Z,9.10
2023-03-23T16:22:04.618Z,13.10
2023-03-23T16:27:06.350Z,10.90
2023-03-23T16:32:08.058Z,12.10
2023-03-23T16:37:12.128Z,8.70
2023-03-23T16:42:13.823Z,6.90
2023-03-23T16:47:15.631Z,8.40
2023-03-23T16:52:18.118Z,11.90
2023-03-23T16:57:19.854Z,7.70
2023-03-23T17:02:22.159Z,7.70
2023-03-23T17:07:24.554Z,7.50
2023-03-23T17:12:27.293Z,10.90
2023-03-23T17:17:29.147Z,10.90
2023-03-23T17:22:31.253Z,10.70
2023-03-23T17:27:33.154Z,9.80
2023-03-23T17:32:35.281Z,10.50
2023-03-23T17:37:37.899Z,13.30
2023-03-23T17:42:39.846Z,19.70
2023-03-23T17:47:41.726Z,15.90
2023-03-23T17:52:44.106Z,13.00
2023-03-23T17:57:46.080Z,14.50
2023-03-23T18:02:47.997Z,16.10
2023-03-23T18:07:50.079Z,13.90
2023-03-23T18:12:51.774Z,15.00
2023-03-23T18:17:53.685Z,17.40
2023-03-23T18:22:57.374Z,22.40
2023-03-23T18:28:05.057Z,22.10
2023-03-23T18:33:08.595Z,26.90
2023-03-23T18:38:11.091Z,27.30
2023-03-23T18:43:13.981Z,14.00
2023-03-23T18:48:15.651Z,8.70
2023-03-23T18:53:17.941Z,7.60
2023-03-23T18:58:21.078Z,10.20
2023-03-23T19:03:23.939Z,10.40
2023-03-23T19:08:27.527Z,11.90
2023-03-23T19:18:34.111Z,10.50
2023-03-23T19:23:37.446Z,12.50
2023-03-23T19:33:45.433Z,16.70
2023-03-23T19:38:50.676Z,15.20
2023-03-23T19:43:52.352Z,14.70
2023-03-23T19:48:54.337Z,15.00
2023-03-23T19:53:57.844Z,17.60
2023-03-23T19:59:00.231Z,17.00
2023-03-23T20:04:05.354Z,17.40
2023-03-23T20:14:09.625Z,10.30
2023-03-23T20:19:11.817Z,9.20
2023-03-23T20:24:14.082Z,7.70
2023-03-23T20:29:16.196Z,8.60
2023-03-23T20:34:28.840Z,8.50
2023-03-23T20:39:33.369Z,7.40
2023-03-23T20:44:36.151Z,7.90
2023-03-23T20:49:40.326Z,6.60
2023-03-23T20:54:42.688Z,5.70
2023-03-23T20:59:44.368Z,8.10
2023-03-23T21:04:47.497Z,6.50
2023-03-23T21:09:49.538Z,6.10
2023-03-23T21:14:51.604Z,6.60
2023-03-23T21:19:53.264Z,5.80
2023-03-23T21:24:55.011Z,6.30
2023-03-23T21:29:59.715Z,6.40
2023-03-23T21:35:02.792Z,5.70
2023-03-23T21:40:06.988Z,4.80
2023-03-23T21:45:11.349Z,4.80
2023-03-23T21:50:13.988Z,4.80
2023-03-23T21:55:16.712Z,4.70
2023-03-23T22:00:18.884Z,5.20
2023-03-23T22:05:20.920Z,5.00
2023-03-23T22:10:25.360Z,6.80
2023-03-23T22:15:29.698Z,6.00
2023-03-23T22:20:32.531Z,5.10
2023-03-23T22:25:36.239Z,5.90
2023-03-23T22:30:37.970Z,5.90
2023-03-23T22:35:46.086Z,5.50
2023-03-23T22:41:02.530Z,3.90
2023-03-23T22:46:25.234Z,4.10
2023-03-23T22:51:37.028Z,4.50
2023-03-23T23:01:40.896Z,3.90
2023-03-23T23:06:42.615Z,3.80
2023-03-23T23:11:44.360Z,4.00
2023-03-23T23:16:47.087Z,4.50
2023-03-23T23:21:48.837Z,4.50
2023-03-23T23:26:50.605Z,3.90
2023-03-23T23:31:52.794Z,4.10
2023-03-23T23:36:54.899Z,3.90
2023-03-23T23:41:56.635Z,3.80
2023-03-23T23:46:58.437Z,4.30
2023-03-23T23:52:00.666Z,3.50
2023-03-23T23:57:03.136Z,3.80
